createdAt,value
2022-10-30T00:00:44.529Z,26.67
2022-10-30T00:03:15.663Z,25.42
2022-10-30T00:05:51.548Z,18.85
2022-10-30T00:08:20.663Z,14.98
2022-10-30T00:10:50.359Z,19.48
2022-10-30T00:13:18.334Z,19.52
2022-10-30T00:15:50.689Z,21.60
2022-10-30T00:18:18.006Z,16.73
2022-10-30T00:20:44.782Z,21.63
2022-10-30T00:23:11.639Z,20.77
2022-10-30T00:25:38.533Z,22.40
2022-10-30T00:28:06.795Z,23.08
2022-10-30T00:30:35.334Z,18.25
2022-10-30T00:33:02.201Z,16.60
2022-10-30T00:35:29.321Z,13.27
2022-10-30T00:37:56.523Z,10.82
2022-10-30T00:40:23.766Z,17.45
2022-10-30T00:42:50.467Z,21.77
2022-10-30T00:45:17.898Z,15.30
2022-10-30T00:47:59.843Z,15.32
2022-10-30T00:50:31.227Z,12.55
2022-10-30T00:53:03.055Z,18.70
2022-10-30T00:55:34.570Z,19.80
2022-10-30T00:58:07.664Z,18.75
2022-10-30T01:00:36.061Z,19.23
2022-10-30T01:03:03.171Z,27.75
2022-10-30T01:05:32.267Z,15.80
2022-10-30T01:07:59.218Z,16.50
2022-10-30T01:10:26.222Z,15.43
2022-10-30T01:12:55.262Z,15.48
2022-10-30T01:15:34.079Z,13.20
2022-10-30T01:18:12.837Z,16.90
2022-10-30T01:20:45.102Z,14.88
2022-10-30T01:23:20.634Z,9.65
2022-10-30T01:26:08.953Z,10.15
2022-10-30T01:29:19.666Z,12.80
2022-10-30T01:32:02.775Z,15.98
2022-10-30T01:34:38.426Z,21.88
2022-10-30T01:37:19.611Z,14.00
2022-10-30T01:39:46.355Z,16.30
2022-10-30T01:42:41.082Z,11.73
2022-10-30T01:45:08.219Z,11.32
2022-10-30T01:47:48.932Z,11.88
2022-10-30T01:50:27.602Z,16.15
2022-10-30T01:53:12.106Z,12.27
2022-10-30T01:55:41.459Z,12.75
2022-10-30T01:58:46.962Z,13.23
2022-10-30T02:01:14.549Z,25.98
2022-10-30T02:03:41.583Z,11.32
2022-10-30T02:06:08.227Z,14.68
2022-10-30T02:08:35.106Z,17.65
2022-10-30T02:11:04.859Z,18.17
2022-10-30T02:13:32.208Z,16.63
2022-10-30T02:15:59.750Z,15.15
2022-10-30T02:18:26.530Z,14.15
2022-10-30T02:20:53.892Z,15.90
2022-10-30T02:23:22.316Z,11.52
2022-10-30T02:25:49.004Z,14.57
2022-10-30T02:28:15.651Z,21.80
2022-10-30T02:30:44.143Z,15.88
2022-10-30T02:33:11.181Z,10.85
2022-10-30T02:35:37.956Z,14.27
2022-10-30T02:38:04.581Z,15.82
2022-10-30T02:40:31.343Z,19.80
2022-10-30T02:42:58.051Z,10.60
2022-10-30T02:45:25.720Z,14.68
2022-10-30T02:47:52.397Z,15.93
2022-10-30T02:50:19.119Z,21.60
2022-10-30T02:52:45.774Z,21.17
2022-10-30T02:55:12.736Z,27.13
2022-10-30T02:57:39.497Z,18.85
2022-10-30T03:00:07.869Z,12.70
2022-10-30T03:02:34.702Z,11.48
2022-10-30T03:05:02.918Z,11.07
2022-10-30T03:07:29.609Z,13.00
2022-10-30T03:09:56.222Z,15.25
2022-10-30T03:12:22.950Z,12.60
2022-10-30T03:14:49.573Z,14.13
2022-10-30T03:17:16.267Z,11.90
2022-10-30T03:19:42.894Z,14.68
2022-10-30T03:22:09.593Z,20.30
2022-10-30T03:24:36.333Z,18.73
2022-10-30T03:27:02.963Z,13.93
2022-10-30T03:29:29.976Z,14.52
2022-10-30T03:31:56.649Z,15.38
2022-10-30T03:34:23.287Z,15.45
2022-10-30T03:36:50.007Z,8.52
2022-10-30T03:39:16.647Z,9.55
2022-10-30T03:41:43.580Z,10.02
2022-10-30T03:44:10.288Z,10.07
2022-10-30T03:46:36.994Z,10.10
2022-10-30T03:49:03.681Z,12.23
2022-10-30T03:51:30.335Z,8.20
2022-10-30T03:53:57.051Z,13.23
2022-10-30T03:56:23.756Z,9.07
2022-10-30T03:58:50.383Z,7.03
2022-10-30T04:01:17.146Z,8.57
2022-10-30T04:03:43.836Z,15.38
2022-10-30T04:06:10.531Z,17.48
2022-10-30T04:08:37.292Z,11.13
2022-10-30T04:11:04.478Z,10.50
2022-10-30T04:13:31.194Z,14.15
2022-10-30T04:15:58.450Z,17.92
2022-10-30T04:18:26.186Z,13.85
2022-10-30T04:20:52.939Z,12.35
2022-10-30T04:23:21.197Z,10.90
2022-10-30T04:25:48.420Z,10.50
2022-10-30T04:28:15.686Z,10.05
2022-10-30T04:30:42.402Z,9.15
2022-10-30T04:33:12.364Z,9.98
2022-10-30T04:35:39.930Z,10.48
2022-10-30T04:38:09.068Z,10.18
2022-10-30T04:40:37.873Z,6.63
2022-10-30T04:43:06.057Z,10.60
2022-10-30T04:45:32.790Z,9.15
2022-10-30T04:48:03.954Z,7.13
2022-10-30T04:50:31.707Z,14.37
2022-10-30T04:53:03.130Z,12.15
2022-10-30T04:55:30.906Z,7.80
2022-10-30T04:57:59.101Z,8.00
2022-10-30T05:00:27.265Z,5.72
2022-10-30T05:03:01.161Z,7.97
2022-10-30T05:05:32.361Z,6.47
2022-10-30T05:07:59.674Z,8.73
2022-10-30T05:10:26.696Z,13.02
2022-10-30T05:12:54.302Z,22.13
2022-10-30T05:15:21.512Z,14.77
2022-10-30T05:17:52.787Z,10.57
2022-10-30T05:20:19.568Z,10.63
2022-10-30T05:22:46.613Z,11.38
2022-10-30T05:25:13.436Z,8.57
2022-10-30T05:27:40.222Z,11.85
2022-10-30T05:30:07.635Z,14.35
2022-10-30T05:32:34.265Z,8.32
2022-10-30T05:35:00.924Z,7.07
2022-10-30T05:37:27.669Z,6.75
2022-10-30T05:39:54.345Z,9.35
2022-10-30T05:42:21.060Z,8.50
2022-10-30T05:45:00.334Z,7.85
2022-10-30T05:47:28.059Z,8.52
2022-10-30T05:49:54.712Z,7.50
2022-10-30T05:52:21.470Z,9.13
2022-10-30T05:54:48.129Z,11.70
2022-10-30T05:57:14.823Z,16.05
2022-10-30T05:59:41.489Z,13.50
2022-10-30T06:02:11.315Z,24.92
2022-10-30T06:04:37.999Z,17.42
2022-10-30T06:07:08.403Z,19.90
2022-10-30T06:09:35.145Z,15.40
2022-10-30T06:12:02.984Z,17.52
2022-10-30T06:14:29.874Z,11.68
2022-10-30T06:16:56.601Z,12.77
2022-10-30T06:19:23.301Z,9.80
2022-10-30T06:21:50.006Z,6.97
2022-10-30T06:24:16.654Z,5.40
2022-10-30T06:26:43.353Z,6.93
2022-10-30T06:29:10.056Z,7.28
2022-10-30T06:31:36.789Z,7.68
2022-10-30T06:34:03.644Z,11.07
2022-10-30T06:36:30.334Z,6.10
2022-10-30T06:38:57.075Z,8.05
2022-10-30T06:41:26.204Z,5.97
2022-10-30T06:43:57.093Z,6.35
2022-10-30T06:46:26.988Z,8.70
2022-10-30T06:48:57.499Z,9.18
2022-10-30T06:51:24.593Z,7.68
2022-10-30T06:53:51.269Z,19.58
2022-10-30T06:56:18.041Z,7.53
2022-10-30T06:58:44.691Z,11.55
2022-10-30T07:01:11.350Z,6.22
2022-10-30T07:03:37.980Z,7.38
2022-10-30T07:06:04.809Z,13.63
2022-10-30T07:08:32.556Z,14.50
2022-10-30T07:10:59.259Z,29.63
2022-10-30T07:13:26.055Z,24.23
2022-10-30T07:15:52.855Z,25.63
2022-10-30T07:18:19.619Z,24.23
2022-10-30T07:20:46.324Z,17.27
2022-10-30T07:23:13.062Z,14.90
2022-10-30T07:25:39.725Z,10.60
2022-10-30T07:28:08.599Z,8.48
2022-10-30T07:30:35.251Z,7.45
2022-10-30T07:33:04.600Z,8.40
2022-10-30T07:35:33.695Z,6.35
2022-10-30T07:38:08.326Z,7.63
2022-10-30T07:40:35.427Z,10.02
2022-10-30T07:43:04.267Z,6.88
2022-10-30T07:45:31.980Z,9.10
2022-10-30T07:47:58.940Z,6.90
2022-10-30T07:50:25.815Z,6.45
2022-10-30T07:52:52.542Z,9.40
2022-10-30T07:55:19.219Z,9.70
2022-10-30T07:57:46.018Z,10.43
2022-10-30T08:00:14.665Z,9.48
2022-10-30T08:02:41.929Z,12.50
2022-10-30T08:05:09.916Z,9.45
2022-10-30T08:07:39.627Z,8.90
2022-10-30T08:10:07.550Z,8.00
2022-10-30T08:12:35.257Z,7.05
2022-10-30T08:15:03.651Z,7.75
2022-10-30T08:17:30.312Z,8.18
2022-10-30T08:19:57.162Z,6.47
2022-10-30T08:22:24.886Z,7.32
2022-10-30T08:24:51.668Z,8.25
2022-10-30T08:27:18.364Z,7.55
2022-10-30T08:29:54.121Z,9.27
2022-10-30T08:32:20.758Z,7.32
2022-10-30T08:34:47.421Z,7.10
2022-10-30T08:37:14.065Z,7.60
2022-10-30T08:39:40.724Z,7.28
2022-10-30T08:42:07.382Z,7.72
2022-10-30T08:44:34.258Z,10.35
2022-10-30T08:47:00.885Z,11.70
2022-10-30T08:49:27.788Z,7.45
2022-10-30T08:51:54.458Z,8.90
2022-10-30T08:54:21.104Z,7.05
2022-10-30T08:56:47.747Z,7.45
2022-10-30T08:59:17.210Z,6.05
2022-10-30T09:01:47.708Z,7.03
2022-10-30T09:04:14.709Z,6.65
2022-10-30T09:06:41.380Z,8.98
2022-10-30T09:09:08.037Z,7.43
2022-10-30T09:11:34.679Z,6.15
2022-10-30T09:14:02.862Z,12.57
2022-10-30T09:16:29.522Z,9.32
2022-10-30T09:18:56.166Z,7.85
2022-10-30T09:21:22.975Z,7.22
2022-10-30T09:23:49.634Z,11.02
2022-10-30T09:26:18.436Z,5.90
2022-10-30T09:28:47.550Z,8.00
2022-10-30T09:31:14.220Z,9.73
2022-10-30T09:33:40.904Z,9.60
2022-10-30T09:36:07.726Z,7.15
2022-10-30T09:38:34.352Z,8.73
2022-10-30T09:41:24.498Z,8.35
2022-10-30T09:44:16.729Z,6.82
2022-10-30T09:49:31.582Z,11.73
2022-10-30T09:55:18.741Z,10.80
2022-10-30T09:57:57.285Z,7.78
2022-10-30T10:00:32.710Z,9.25
2022-10-30T10:03:23.052Z,9.88
2022-10-30T10:06:01.064Z,8.07
2022-10-30T10:08:42.268Z,9.05
2022-10-30T10:11:22.294Z,8.43
2022-10-30T10:14:22.811Z,8.52
2022-10-30T10:16:53.139Z,11.30
2022-10-30T10:19:38.311Z,7.60
2022-10-30T10:22:21.344Z,9.85
2022-10-30T10:24:48.580Z,10.30
2022-10-30T10:27:53.002Z,10.02
2022-10-30T10:30:22.346Z,11.32
2022-10-30T10:32:52.229Z,12.60
2022-10-30T10:35:37.213Z,9.38
2022-10-30T10:38:03.853Z,9.65
2022-10-30T10:40:52.638Z,9.00
2022-10-30T10:43:41.208Z,7.28
2022-10-30T10:46:39.172Z,11.88
2022-10-30T10:49:30.945Z,11.15
2022-10-30T10:52:04.317Z,10.20
2022-10-30T10:57:17.445Z,14.55
2022-10-30T10:59:50.099Z,10.20
2022-10-30T11:02:33.505Z,12.38
2022-10-30T11:05:07.871Z,10.48
2022-10-30T11:07:44.993Z,11.90
2022-10-30T11:10:16.536Z,14.65
2022-10-30T11:12:43.577Z,10.00
2022-10-30T11:15:28.396Z,8.25
2022-10-30T11:18:03.083Z,6.65
2022-10-30T11:21:04.640Z,8.15
2022-10-30T11:23:43.162Z,9.48
2022-10-30T11:26:19.027Z,9.52
2022-10-30T11:28:57.687Z,7.85
2022-10-30T11:31:34.924Z,11.30
2022-10-30T11:34:20.212Z,7.20
2022-10-30T11:36:52.343Z,10.32
2022-10-30T11:39:21.529Z,10.43
2022-10-30T11:41:56.896Z,10.48
2022-10-30T11:44:29.131Z,7.60
2022-10-30T11:46:56.615Z,6.88
2022-10-30T11:49:36.558Z,7.57
2022-10-30T11:52:04.394Z,8.02
2022-10-30T11:54:37.467Z,11.20
2022-10-30T11:57:07.741Z,8.70
2022-10-30T11:59:34.463Z,7.20
2022-10-30T12:02:18.720Z,10.32
2022-10-30T12:04:45.541Z,8.73
2022-10-30T12:07:29.326Z,10.52
2022-10-30T12:09:57.599Z,8.43
2022-10-30T12:12:28.572Z,6.45
2022-10-30T12:14:55.548Z,11.13
2022-10-30T12:17:22.905Z,8.75
2022-10-30T12:19:55.551Z,10.35
2022-10-30T12:22:31.723Z,8.65
2022-10-30T12:25:18.472Z,7.90
2022-10-30T12:27:45.348Z,9.48
2022-10-30T12:30:19.098Z,6.15
2022-10-30T12:32:54.705Z,6.82
2022-10-30T12:35:46.770Z,6.57
2022-10-30T12:38:45.053Z,5.22
2022-10-30T12:41:24.720Z,5.55
2022-10-30T12:44:14.437Z,9.70
2022-10-30T12:46:46.975Z,7.30
2022-10-30T12:49:45.708Z,9.02
2022-10-30T12:52:21.659Z,10.65
2022-10-30T12:55:23.174Z,5.95
2022-10-30T12:58:15.554Z,6.30
2022-10-30T13:01:26.857Z,6.88
2022-10-30T13:04:05.616Z,16.60
2022-10-30T13:06:39.450Z,13.48
2022-10-30T13:09:18.550Z,10.27
2022-10-30T13:12:04.811Z,6.70
2022-10-30T13:14:40.160Z,7.90
2022-10-30T13:17:12.247Z,8.98
2022-10-30T13:19:45.319Z,7.47
2022-10-30T13:22:38.201Z,5.18
2022-10-30T13:25:19.419Z,7.20
2022-10-30T13:27:55.319Z,10.90
2022-10-30T13:30:25.493Z,7.18
2022-10-30T13:33:21.992Z,5.18
2022-10-30T13:36:04.578Z,7.03
2022-10-30T13:39:05.188Z,7.15
2022-10-30T13:42:14.573Z,6.07
2022-10-30T13:44:55.601Z,6.93
2022-10-30T13:47:52.518Z,9.82
2022-10-30T13:50:39.221Z,8.25
2022-10-30T13:53:11.291Z,10.35
2022-10-30T13:55:41.212Z,6.43
2022-10-30T13:58:24.585Z,7.18
2022-10-30T14:01:26.120Z,8.98
2022-10-30T14:03:59.126Z,6.93
2022-10-30T14:06:33.658Z,5.35
2022-10-30T14:09:12.512Z,9.82
2022-10-30T14:11:39.142Z,8.30
2022-10-30T14:14:24.548Z,8.70
2022-10-30T14:17:16.304Z,8.85
2022-10-30T14:22:37.659Z,8.05
2022-10-30T14:25:13.904Z,7.88
2022-10-30T14:27:40.745Z,7.78
2022-10-30T14:30:20.228Z,9.65
2022-10-30T14:32:53.553Z,6.60
2022-10-30T14:35:38.375Z,17.30
2022-10-30T14:38:08.020Z,7.78
2022-10-30T14:40:45.607Z,5.25
2022-10-30T14:43:27.522Z,7.15
2022-10-30T14:46:06.399Z,6.00
2022-10-30T14:49:05.393Z,8.70
2022-10-30T14:51:40.128Z,7.28
2022-10-30T14:54:24.409Z,6.15
2022-10-30T14:56:52.657Z,7.25
2022-10-30T14:59:19.772Z,13.23
2022-10-30T15:02:05.565Z,6.68
2022-10-30T15:04:58.961Z,6.20
2022-10-30T15:07:53.235Z,11.85
2022-10-30T15:10:23.150Z,9.90
2022-10-30T15:13:05.289Z,9.05
2022-10-30T15:15:32.683Z,7.70
2022-10-30T15:18:03.437Z,7.65
2022-10-30T15:20:33.166Z,10.23
2022-10-30T15:23:04.429Z,11.13
2022-10-30T15:25:37.284Z,11.00
2022-10-30T15:28:04.637Z,9.57
2022-10-30T15:30:31.449Z,8.20
2022-10-30T15:35:50.761Z,11.55
2022-10-30T15:38:22.825Z,9.82
2022-10-30T15:40:49.940Z,7.13
2022-10-30T15:43:17.989Z,7.47
2022-10-30T15:45:52.632Z,8.48
2022-10-30T15:48:53.736Z,7.22
2022-10-30T15:51:24.727Z,7.93
2022-10-30T15:54:00.231Z,8.77
2022-10-30T15:57:18.045Z,9.27
2022-10-30T15:59:39.124Z,9.60
2022-10-30T16:02:26.693Z,9.73
2022-10-30T16:04:54.036Z,8.13
2022-10-30T16:07:31.091Z,8.80
2022-10-30T16:10:03.760Z,7.03
2022-10-30T16:12:38.455Z,9.80
2022-10-30T16:15:19.398Z,7.53
2022-10-30T16:18:22.707Z,9.73
2022-10-30T16:20:55.363Z,9.15
2022-10-30T16:23:22.783Z,11.00
2022-10-30T16:25:55.397Z,9.95
2022-10-30T16:28:38.293Z,7.97
2022-10-30T16:31:06.973Z,9.10
2022-10-30T16:33:36.340Z,12.43
2022-10-30T16:36:04.663Z,8.55
2022-10-30T16:38:39.815Z,9.20
2022-10-30T16:41:08.006Z,7.18
2022-10-30T16:43:35.635Z,8.45
2022-10-30T16:46:14.542Z,13.80
2022-10-30T16:48:56.593Z,6.50
2022-10-30T16:51:23.674Z,9.80
2022-10-30T16:53:53.849Z,7.13
2022-10-30T16:56:26.336Z,10.90
2022-10-30T16:58:57.415Z,12.55
2022-10-30T17:01:28.064Z,22.10
2022-10-30T17:03:55.784Z,10.43
2022-10-30T17:06:35.845Z,13.50
2022-10-30T17:09:08.449Z,13.68
2022-10-30T17:11:47.256Z,8.80
2022-10-30T17:14:23.814Z,16.35
2022-10-30T17:17:00.198Z,16.67
2022-10-30T17:19:32.969Z,15.10
2022-10-30T17:22:04.679Z,15.13
2022-10-30T17:27:04.273Z,11.18
2022-10-30T17:29:44.951Z,8.50
2022-10-30T17:32:18.217Z,8.25
2022-10-30T17:34:44.982Z,12.23
2022-10-30T17:37:11.709Z,11.68
2022-10-30T17:39:38.453Z,16.63
2022-10-30T17:42:09.180Z,13.07
2022-10-30T17:44:36.226Z,9.45
2022-10-30T17:47:16.582Z,11.15
2022-10-30T17:49:44.080Z,11.80
2022-10-30T17:52:15.028Z,8.30
2022-10-30T17:54:42.988Z,12.13
2022-10-30T17:57:14.420Z,14.80
2022-10-30T17:59:41.931Z,9.43
2022-10-30T18:02:20.140Z,8.48
2022-10-30T18:04:47.710Z,9.52
2022-10-30T18:07:16.074Z,11.43
2022-10-30T18:09:43.693Z,7.75
2022-10-30T18:12:16.339Z,11.63
2022-10-30T18:14:45.453Z,8.07
2022-10-30T18:17:12.516Z,10.00
2022-10-30T18:19:39.208Z,14.07
2022-10-30T18:22:05.910Z,10.55
2022-10-30T18:24:32.699Z,14.10
2022-10-30T18:26:59.391Z,11.85
2022-10-30T18:29:26.191Z,7.75
2022-10-30T18:31:53.000Z,9.52
2022-10-30T18:34:21.485Z,10.05
2022-10-30T18:36:48.838Z,8.35
2022-10-30T18:39:15.574Z,10.88
2022-10-30T18:41:44.627Z,7.68
2022-10-30T18:44:18.367Z,19.30
2022-10-30T18:46:45.838Z,19.88
2022-10-30T18:49:12.670Z,18.58
2022-10-30T18:51:39.637Z,19.60
2022-10-30T18:54:15.296Z,18.35
2022-10-30T18:56:42.221Z,16.58
2022-10-30T18:59:08.892Z,16.02
2022-10-30T19:01:35.904Z,26.27
2022-10-30T19:04:04.351Z,13.18
2022-10-30T19:06:34.215Z,13.13
2022-10-30T19:09:02.912Z,12.73
2022-10-30T19:11:31.925Z,13.65
2022-10-30T19:13:58.913Z,15.18
2022-10-30T19:16:26.427Z,21.13
2022-10-30T19:18:53.466Z,17.75
2022-10-30T19:21:25.534Z,14.82
2022-10-30T19:23:52.802Z,16.42
2022-10-30T19:26:19.795Z,18.80
2022-10-30T19:28:46.483Z,20.52
2022-10-30T19:31:15.820Z,24.63
2022-10-30T19:33:42.604Z,18.20
2022-10-30T19:36:36.261Z,17.25
2022-10-30T19:39:10.134Z,19.45
2022-10-30T19:41:38.562Z,21.63
2022-10-30T19:44:05.351Z,23.15
2022-10-30T19:46:31.996Z,17.65
2022-10-30T19:48:59.913Z,18.23
2022-10-30T19:51:27.964Z,18.13
2022-10-30T19:53:54.755Z,13.35
2022-10-30T19:56:21.817Z,15.50
2022-10-30T19:58:48.954Z,15.85
2022-10-30T20:01:16.283Z,16.98
2022-10-30T20:03:43.298Z,14.00
2022-10-30T20:06:13.829Z,15.48
2022-10-30T20:08:40.982Z,14.18
2022-10-30T20:11:08.218Z,19.23
2022-10-30T20:13:35.474Z,19.70
2022-10-30T20:16:04.738Z,20.33
2022-10-30T20:18:33.838Z,12.75
2022-10-30T20:21:10.031Z,12.20
2022-10-30T20:23:37.308Z,14.55
2022-10-30T20:26:07.356Z,17.80
2022-10-30T20:28:40.505Z,19.23
2022-10-30T20:31:08.723Z,15.85
2022-10-30T20:33:35.475Z,17.20
2022-10-30T20:36:02.587Z,20.95
2022-10-30T20:38:32.811Z,19.23
2022-10-30T20:41:02.028Z,25.38
2022-10-30T20:43:30.291Z,16.55
2022-10-30T20:45:58.630Z,20.17
2022-10-30T20:48:26.015Z,20.10
2022-10-30T20:50:53.894Z,19.58
2022-10-30T20:53:20.609Z,14.77
2022-10-30T20:55:47.603Z,16.95
2022-10-30T20:58:14.286Z,21.73
2022-10-30T21:00:41.307Z,22.45
2022-10-30T21:03:08.436Z,26.08
2022-10-30T21:05:45.106Z,24.75
2022-10-30T21:08:15.536Z,24.65
2022-10-30T21:10:42.693Z,28.77
2022-10-30T21:13:11.263Z,22.92
2022-10-30T21:15:42.931Z,22.00
2022-10-30T21:18:12.977Z,21.40
2022-10-30T21:20:45.152Z,25.77
2022-10-30T21:23:13.058Z,23.33
2022-10-30T21:26:02.933Z,19.23
2022-10-30T21:28:29.664Z,21.85
2022-10-30T21:31:02.055Z,20.10
2022-10-30T21:33:35.974Z,24.92
2022-10-30T21:36:12.462Z,18.63
2022-10-30T21:38:42.039Z,18.00
2022-10-30T21:41:10.134Z,15.18
2022-10-30T21:43:36.777Z,18.10
2022-10-30T21:46:08.348Z,23.00
2022-10-30T21:48:35.033Z,17.30
2022-10-30T21:51:13.154Z,22.05
2022-10-30T21:53:40.314Z,23.45
2022-10-30T21:56:22.227Z,14.05
2022-10-30T21:58:49.185Z,14.70
2022-10-30T22:01:25.258Z,22.35
2022-10-30T22:03:52.172Z,10.23
2022-10-30T22:06:20.370Z,16.88
2022-10-30T22:08:51.783Z,11.73
2022-10-30T22:11:19.606Z,16.30
2022-10-30T22:13:47.401Z,10.80
2022-10-30T22:16:14.948Z,14.65
2022-10-30T22:18:41.679Z,18.33
2022-10-30T22:21:10.148Z,15.65
2022-10-30T22:23:38.196Z,11.85
2022-10-30T22:26:07.382Z,16.10
2022-10-30T22:28:34.954Z,10.55
2022-10-30T22:31:07.163Z,15.38
2022-10-30T22:33:34.521Z,22.67
2022-10-30T22:36:08.292Z,16.60
2022-10-30T22:38:35.589Z,16.73
2022-10-30T22:41:17.159Z,11.13
2022-10-30T22:43:46.280Z,11.02
2022-10-30T22:46:14.476Z,12.85
2022-10-30T22:48:41.373Z,14.05
2022-10-30T22:51:15.056Z,15.50
2022-10-30T22:53:44.120Z,15.43
2022-10-30T22:56:23.348Z,15.68
2022-10-30T22:58:51.407Z,12.30
2022-10-30T23:01:26.940Z,16.27
2022-10-30T23:03:56.563Z,16.42
2022-10-30T23:06:23.568Z,13.60
2022-10-30T23:08:53.018Z,12.27
2022-10-30T23:11:19.899Z,10.40
2022-10-30T23:13:46.947Z,7.63
2022-10-30T23:16:20.723Z,22.55
2022-10-30T23:18:48.308Z,12.73
2022-10-30T23:21:20.937Z,17.90
2022-10-30T23:23:48.072Z,15.77
2022-10-30T23:26:17.587Z,9.55
2022-10-30T23:28:45.095Z,10.20
2022-10-30T23:31:33.508Z,9.05
2022-10-30T23:34:02.772Z,16.02
2022-10-30T23:36:29.955Z,13.38
2022-10-30T23:39:02.002Z,14.32
2022-10-30T23:44:02.902Z,18.02
2022-10-30T23:46:29.699Z,18.98
2022-10-30T23:48:56.736Z,17.35
2022-10-30T23:51:24.128Z,16.98
2022-10-30T23:53:51.275Z,13.20
2022-10-30T23:56:18.578Z,9.13
2022-10-30T23:58:46.887Z,9.80
